Time;durP1;ratioP1;P1;durP2;ratioP2;P2;SDS_P1;SDS_P2;PMS_P1;PMS_P2;Temp;Humidity;BMP_temperature;BMP_pressure;BME280_temperature;BME280_humidity;BME280_pressure;Samples;Min_cycle;Max_cycle;Signal;HPM_P1;HPM_P2
2023/04/22 00:01:52;;;;;;;3.87;3.47;;;;;;;12.61;62.91;98291.31;5111938;28;41401;-78
2023/04/22 00:04:20;;;;;;;4.43;3.90;;;;;;;12.46;64.32;98266.84;5111858;28;43209;-80
2023/04/22 00:06:47;;;;;;;4.20;3.50;;;;;;;12.56;63.24;98294.38;5113084;28;41004;-78
2023/04/22 00:09:15;;;;;;;4.67;3.97;;;;;;;12.55;62.84;98292.66;5112960;28;41823;-80
2023/04/22 00:11:45;;;;;;;2.80;2.60;;;;;;;12.53;62.41;98297.25;5094497;28;41905;-79
2023/04/22 00:14:13;;;;;;;4.30;3.90;;;;;;;12.52;64.13;98281.44;5086009;28;42162;-80
2023/04/22 00:16:40;;;;;;;4.93;4.40;;;;;;;12.51;63.80;98285.91;5092468;28;40170;-79
2023/04/22 00:19:08;;;;;;;4.50;4.10;;;;;;;12.48;63.67;98286.16;5111726;28;41837;-80
2023/04/22 00:21:35;;;;;;;4.57;4.10;;;;;;;12.42;63.37;98270.69;5111345;28;42878;-80
2023/04/22 00:24:04;;;;;;;4.83;4.40;;;;;;;12.38;63.09;98263.94;5111671;28;43266;-80
2023/04/22 00:26:31;;;;;;;4.20;3.57;;;;;;;12.44;63.13;98275.91;5111557;28;41152;-80
2023/04/22 00:29:00;;;;;;;4.23;3.83;;;;;;;12.38;62.85;98271.91;5111386;28;40804;-79
2023/04/22 00:31:28;;;;;;;3.70;3.30;;;;;;;12.49;62.73;98295.78;5111376;28;42838;-79
2023/04/22 00:33:58;;;;;;;3.63;3.10;;;;;;;12.49;62.51;98294.94;5077256;28;41200;-80
2023/04/22 00:39:48;;;;;;;4.43;4.03;;;;;;;12.25;64.84;98231.34;5074498;28;41844;-80
2023/04/22 00:42:16;;;;;;;4.93;4.43;;;;;;;12.41;63.98;98279.63;5094086;28;42923;-80
2023/04/22 00:44:46;;;;;;;3.97;3.57;;;;;;;12.47;64.02;98279.16;5111096;28;41425;-78
2023/04/22 00:47:14;;;;;;;4.40;4.00;;;;;;;12.42;63.72;98280.47;5111508;28;41153;-78
2023/04/22 00:49:42;;;;;;;3.80;3.50;;;;;;;12.45;63.52;98294.38;5106353;28;41784;-78
2023/04/22 00:52:10;;;;;;;3.60;3.30;;;;;;;12.44;63.09;98283.88;5094277;28;41675;-79
2023/04/22 00:54:38;;;;;;;3.13;2.83;;;;;;;12.22;62.99;98252.84;5094325;28;41277;-79
2023/04/22 00:57:05;;;;;;;3.30;3.00;;;;;;;12.43;63.44;98292.78;5094608;28;40059;-80
2023/04/22 00:59:33;;;;;;;3.70;3.30;;;;;;;12.36;63.29;98280.97;5111237;28;42016;-78
2023/04/22 01:02:04;;;;;;;3.80;3.47;;;;;;;12.42;63.08;98299.91;5094365;28;41630;-81
2023/04/22 01:04:35;;;;;;;3.50;3.20;;;;;;;12.42;62.93;98302.56;5093994;28;41594;-78
2023/04/22 01:07:02;;;;;;;3.17;2.87;;;;;;;12.33;62.85;98282.06;5094442;28;40181;-80
2023/04/22 01:09:32;;;;;;;3.60;3.30;;;;;;;12.40;62.64;98299.19;5093834;28;40582;-80
2023/04/22 01:12:00;;;;;;;3.37;3.17;;;;;;;12.39;62.68;98304.63;5093729;28;41496;-80
2023/04/22 01:14:28;;;;;;;4.17;3.50;;;;;;;12.35;62.97;98296.06;5093359;28;41465;-79
2023/04/22 01:16:56;;;;;;;3.77;3.30;;;;;;;12.13;62.98;98258.88;5111188;28;41038;-80
2023/04/22 01:19:28;;;;;;;3.40;3.10;;;;;;;12.37;62.78;98296.75;5093612;28;42928;-79
2023/04/22 01:21:58;;;;;;;4.60;4.20;;;;;;;12.21;64.94;98267.94;5110899;28;41812;-79
2023/04/22 01:24:27;;;;;;;4.90;4.20;;;;;;;12.33;64.63;98298.00;5093676;28;41247;-78
2023/04/22 01:26:55;;;;;;;4.70;4.30;;;;;;;12.33;64.26;98297.16;5110858;28;40898;-80
2023/04/22 01:29:23;;;;;;;4.30;3.87;;;;;;;12.24;64.42;98285.41;5093650;28;40715;-79
2023/04/22 01:31:50;;;;;;;3.90;3.50;;;;;;;12.31;64.61;98294.59;5093999;28;42149;-78
2023/04/22 01:34:18;;;;;;;4.70;3.40;;;;;;;12.31;64.53;98299.06;5112563;27;42279;-79
2023/04/22 01:36:46;;;;;;;5.30;3.93;;;;;;;12.16;64.46;98279.88;5114731;28;41185;-80
2023/04/22 01:39:14;;;;;;;3.93;3.60;;;;;;;12.30;64.21;98298.22;5079923;28;42420;-77
2023/04/22 01:41:43;;;;;;;4.67;3.07;;;;;;;12.29;63.88;98301.84;5080444;28;41790;-80
2023/04/22 01:44:10;;;;;;;4.47;3.73;;;;;;;12.28;64.10;98302.81;5102798;28;42086;-79
2023/04/22 01:46:38;;;;;;;4.00;3.10;;;;;;;12.27;64.00;98297.59;5097544;28;39764;-79
2023/04/22 01:49:07;;;;;;;4.03;3.63;;;;;;;12.16;64.13;98286.03;5114044;28;41958;-79
2023/04/22 01:51:35;;;;;;;3.37;3.07;;;;;;;12.26;64.12;98304.72;5114065;28;41941;-80
2023/04/22 01:54:03;;;;;;;3.50;3.20;;;;;;;12.24;63.96;98314.63;5097252;28;42358;-80
2023/04/22 01:56:30;;;;;;;3.60;3.30;;;;;;;12.24;63.73;98317.28;5115407;28;40977;-79
2023/04/22 01:58:59;;;;;;;3.73;3.20;;;;;;;12.08;63.70;98300.88;5079879;28;40975;-79
2023/04/22 02:01:29;;;;;;;4.60;3.57;;;;;;;12.19;63.99;98328.25;5096889;28;41744;-79
2023/04/22 02:03:57;;;;;;;4.53;3.50;;;;;;;12.14;63.82;98313.66;5114173;28;42395;-78
2023/04/22 02:06:26;;;;;;;4.00;3.60;;;;;;;12.15;64.49;98320.66;5114140;28;40689;-79
2023/04/22 02:08:54;;;;;;;3.60;3.07;;;;;;;12.08;64.65;98303.53;5097037;28;41874;-80
2023/04/22 02:11:21;;;;;;;4.23;3.80;;;;;;;12.12;64.63;98319.06;5114587;28;42906;-79
2023/04/22 02:13:49;;;;;;;4.37;3.97;;;;;;;12.08;64.35;98308.81;5115251;28;42985;-80
2023/04/22 02:16:18;;;;;;;3.40;3.03;;;;;;;12.11;64.21;98316.56;5079328;28;41113;-78
2023/04/22 02:18:46;;;;;;;4.20;3.63;;;;;;;12.00;64.47;98300.59;5096749;28;42766;-79
2023/04/22 02:21:14;;;;;;;3.93;3.53;;;;;;;12.09;64.35;98316.69;5079611;28;41822;-80
2023/04/22 02:23:41;;;;;;;4.00;3.50;;;;;;;12.08;64.66;98304.38;5096821;28;42334;-80
2023/04/22 02:26:10;;;;;;;4.80;3.40;;;;;;;12.07;64.94;98302.69;5096724;28;39486;-79
2023/04/22 02:28:37;;;;;;;4.93;3.90;;;;;;;12.04;64.71;98296.75;5103145;28;42066;-80
2023/04/22 02:31:05;;;;;;;4.03;3.60;;;;;;;11.90;64.54;98278.38;5102935;28;41563;-80
2023/04/22 02:33:35;;;;;;;3.63;3.30;;;;;;;12.06;64.56;98305.44;5102818;28;41180;-79
2023/04/22 02:36:02;;;;;;;3.70;3.40;;;;;;;12.07;64.45;98310.63;5102830;28;40485;-79
2023/04/22 02:38:30;;;;;;;3.50;3.20;;;;;;;12.07;64.42;98313.28;5121039;28;41606;-78
2023/04/22 02:40:58;;;;;;;4.03;3.47;;;;;;;12.00;64.18;98300.59;5120164;28;44064;-79
2023/04/22 02:43:26;;;;;;;3.50;3.20;;;;;;;12.04;64.35;98313.53;5096237;28;41443;-80
2023/04/22 02:45:53;;;;;;;5.27;4.37;;;;;;;12.04;64.55;98310.00;5094702;28;39975;-78
2023/04/22 02:48:21;;;;;;;4.53;3.80;;;;;;;12.03;64.89;98305.66;5096252;28;40963;-80
2023/04/22 02:50:50;;;;;;;4.23;3.60;;;;;;;12.03;64.86;98313.63;5114353;28;42699;-78
2023/04/22 02:53:18;;;;;;;4.60;4.20;;;;;;;12.03;64.87;98303.00;5095689;28;41465;-78
2023/04/22 02:55:45;;;;;;;4.60;4.20;;;;;;;12.00;64.81;98306.75;5079377;28;39887;-79
2023/04/22 02:58:13;;;;;;;3.90;3.60;;;;;;;11.81;64.61;98280.78;5112943;28;40721;-79
2023/04/22 03:00:41;;;;;;;4.13;3.77;;;;;;;11.97;64.62;98306.16;5114288;28;42789;-78
2023/04/22 03:03:08;;;;;;;3.37;3.07;;;;;;;11.92;64.53;98303.84;5095334;28;41310;-79
2023/04/22 03:05:36;;;;;;;3.77;3.33;;;;;;;11.92;64.60;98309.16;5095765;28;41008;-78
2023/04/22 03:08:05;;;;;;;3.67;3.37;;;;;;;11.78;64.81;98291.63;5078868;28;40762;-78
2023/04/22 03:10:33;;;;;;;3.23;2.97;;;;;;;11.85;64.62;98306.13;5078034;28;43190;-79
2023/04/22 03:13:01;;;;;;;4.17;3.77;;;;;;;11.70;64.65;98278.09;5078867;28;42331;-80
2023/04/22 03:15:29;;;;;;;4.20;3.80;;;;;;;11.85;64.78;98319.41;5078631;28;39768;-78
2023/04/22 03:17:57;;;;;;;3.60;3.30;;;;;;;11.63;64.51;98282.16;5079321;28;40592;-79
2023/04/22 03:20:25;;;;;;;4.00;3.50;;;;;;;11.84;64.42;98314.22;5078614;28;42015;-80
2023/04/22 03:22:54;;;;;;;3.40;3.10;;;;;;;11.83;64.79;98316.03;5078837;28;42453;-79
2023/04/22 03:25:23;;;;;;;3.50;3.17;;;;;;;11.53;64.77;98262.59;5095148;28;41272;-80
2023/04/22 03:27:54;;;;;;;3.43;3.13;;;;;;;11.81;65.00;98311.78;5092705;28;41661;-78
2023/04/22 03:30:22;;;;;;;5.20;3.80;;;;;;;11.77;65.80;98303.22;5078510;28;41975;-79
2023/04/22 03:32:49;;;;;;;3.87;3.30;;;;;;;11.75;65.36;98302.47;5095746;28;41508;-80
2023/04/22 03:35:21;;;;;;;4.77;4.33;;;;;;;11.74;65.47;98300.78;5093935;28;41910;-80
2023/04/22 03:37:51;;;;;;;3.83;3.53;;;;;;;11.76;65.22;98304.16;5078287;28;41810;-78
2023/04/22 03:40:28;;;;;;;4.03;3.70;;;;;;;11.76;65.14;98305.97;5093810;28;42981;-78
2023/04/22 03:42:56;;;;;;;4.93;3.97;;;;;;;11.69;65.42;98292.31;5095151;28;42312;-79
2023/04/22 03:45:24;;;;;;;3.83;3.00;;;;;;;11.75;65.28;98302.47;5078206;28;39726;-79
2023/04/22 03:48:10;;;;;;;4.00;3.43;;;;;;;11.75;65.52;98302.47;5092287;28;42473;-78
2023/04/22 03:50:43;;;;;;;4.10;3.70;;;;;;;11.75;65.16;98301.59;5099800;28;42250;-80
2023/04/22 03:53:10;;;;;;;4.87;4.47;;;;;;;11.74;65.05;98307.88;5112153;28;41279;-79
2023/04/22 03:55:40;;;;;;;4.03;3.73;;;;;;;11.69;65.30;98292.31;5094982;27;40882;-78
2023/04/22 03:58:09;;;;;;;4.33;3.93;;;;;;;11.73;65.35;98301.72;5112840;28;41649;-80
2023/04/22 04:00:37;;;;;;;3.90;3.60;;;;;;;11.73;65.17;98304.38;5093628;28;41971;-78
2023/04/22 04:03:11;;;;;;;4.07;3.67;;;;;;;11.72;65.43;98308.00;5095400;28;42330;-79
2023/04/22 04:05:40;;;;;;;4.20;3.80;;;;;;;11.71;65.27;98298.34;5094957;28;40960;-78
2023/04/22 04:08:07;;;;;;;4.00;3.70;;;;;;;11.71;65.30;98300.16;5111975;28;40834;-78
2023/04/22 04:10:36;;;;;;;3.63;3.33;;;;;;;11.72;65.54;98307.16;5094656;28;43123;-78
2023/04/22 04:13:05;;;;;;;4.47;4.07;;;;;;;11.73;65.21;98304.38;5088878;28;41512;-78
2023/04/22 04:15:43;;;;;;;3.77;3.40;;;;;;;11.71;65.27;98301.00;5094918;28;40136;-78
2023/04/22 04:18:12;;;;;;;4.00;3.60;;;;;;;11.74;65.24;98306.09;5094705;28;42154;-80
2023/04/22 04:20:40;;;;;;;3.63;3.33;;;;;;;11.78;65.51;98302.25;5094292;28;43059;-79
2023/04/22 04:23:08;;;;;;;3.63;3.33;;;;;;;11.80;65.08;98302.97;5111794;28;42623;-77
2023/04/22 04:25:37;;;;;;;4.10;3.73;;;;;;;11.82;65.37;98311.66;5086699;28;39837;-79
2023/04/22 04:28:10;;;;;;;3.57;3.27;;;;;;;11.84;65.16;98307.09;5096000;28;41709;-80
2023/04/22 04:30:40;;;;;;;3.60;3.30;;;;;;;11.77;65.31;98299.72;5094514;28;43327;-77
2023/04/22 04:33:08;;;;;;;3.80;3.43;;;;;;;11.52;65.03;98253.81;5094549;28;41467;-78
2023/04/22 04:35:38;;;;;;;4.20;3.80;;;;;;;11.62;64.99;98264.53;5094803;28;40551;-80
2023/04/22 04:38:07;;;;;;;4.00;3.60;;;;;;;11.92;65.00;98305.66;5094699;28;40815;-80
2023/04/22 04:40:36;;;;;;;4.67;4.10;;;;;;;11.99;65.12;98320.97;5094239;28;41603;-78
2023/04/22 04:43:25;;;;;;;3.80;3.43;;;;;;;12.04;65.20;98317.97;5110599;28;42628;-78
2023/04/22 04:46:00;;;;;;;3.93;3.63;;;;;;;11.99;65.27;98305.06;5094286;28;39823;-80
2023/04/22 04:48:34;;;;;;;4.17;3.77;;;;;;;12.15;65.02;98318.84;5094774;28;40721;-79
2023/04/22 04:51:06;;;;;;;4.77;4.37;;;;;;;12.24;64.97;98325.22;5077312;28;41780;-80
2023/04/22 04:53:38;;;;;;;4.13;3.77;;;;;;;12.32;65.13;98322.84;5094240;28;42707;-80
2023/04/22 04:56:06;;;;;;;4.97;4.43;;;;;;;12.40;64.89;98322.25;5094308;28;40131;-78
2023/04/22 04:58:37;;;;;;;4.27;3.87;;;;;;;12.46;65.04;98325.28;5111253;28;41807;-80
2023/04/22 05:01:12;;;;;;;4.40;4.00;;;;;;;12.51;64.93;98328.41;5094156;28;43343;-79
2023/04/22 05:03:41;;;;;;;5.77;4.60;;;;;;;12.62;64.83;98332.00;5111185;28;43261;-79
2023/04/22 05:06:09;;;;;;;5.17;4.60;;;;;;;12.71;65.36;98328.66;5094347;28;41374;-80
2023/04/22 05:08:39;;;;;;;5.00;4.50;;;;;;;12.76;64.81;98321.13;5095341;28;41694;-80
2023/04/22 05:11:10;;;;;;;6.20;4.97;;;;;;;12.91;64.60;98325.22;5097131;28;41828;-80
2023/04/22 05:13:39;;;;;;;4.90;4.50;;;;;;;13.10;64.67;98333.44;5097608;28;42384;-81
2023/04/22 05:16:10;;;;;;;4.33;3.93;;;;;;;13.10;64.47;98311.31;5097855;28;39950;-81
2023/04/22 05:18:39;;;;;;;5.00;4.33;;;;;;;13.40;64.17;98331.91;5114895;28;41877;-81
2023/04/22 05:21:09;;;;;;;5.23;4.83;;;;;;;13.56;63.74;98337.66;5097623;28;41732;-78
2023/04/22 05:23:37;;;;;;;5.10;4.60;;;;;;;13.72;63.49;98332.75;5114786;28;42725;-81
2023/04/22 05:26:06;;;;;;;4.53;4.13;;;;;;;13.91;63.54;98342.69;5114281;28;41641;-79
2023/04/22 05:28:35;;;;;;;5.03;4.57;;;;;;;14.12;63.56;98334.69;5097375;28;42299;-79
2023/04/22 05:31:06;;;;;;;5.83;4.90;;;;;;;14.32;63.32;98336.50;5114431;28;43006;-80
2023/04/22 05:33:34;;;;;;;5.63;5.03;;;;;;;14.47;63.11;98340.53;5114397;28;42362;-80
2023/04/22 05:36:01;;;;;;;5.37;4.70;;;;;;;14.51;63.10;98319.78;5080057;28;40022;-80
2023/04/22 05:38:29;;;;;;;5.37;4.93;;;;;;;14.60;63.22;98314.50;5080407;28;40554;-79
2023/04/22 05:40:57;;;;;;;5.10;4.70;;;;;;;14.86;62.88;98340.69;5097204;28;43703;-81
2023/04/22 05:43:26;;;;;;;5.67;4.70;;;;;;;14.77;63.09;98302.38;5088192;28;42312;-81
2023/04/22 05:46:00;;;;;;;5.10;4.60;;;;;;;15.05;62.89;98333.59;5097459;28;41175;-79
2023/04/22 05:48:29;;;;;;;7.23;5.10;;;;;;;15.17;63.08;98331.66;5097295;28;41198;-80
2023/04/22 05:51:01;;;;;;;4.70;4.17;;;;;;;15.18;62.90;98320.03;5113830;28;43780;-79
2023/04/22 05:53:31;;;;;;;4.80;4.40;;;;;;;15.33;62.43;98339.97;5114279;28;42995;-80
2023/04/22 05:56:01;;;;;;;5.17;4.63;;;;;;;15.40;62.63;98327.78;5096824;28;40055;-81
2023/04/22 05:58:28;;;;;;;4.97;4.50;;;;;;;15.48;62.08;98336.88;5096182;28;40887;-81
2023/04/22 06:01:01;;;;;;;5.10;4.60;;;;;;;15.50;61.46;98329.59;5113022;28;43125;-80
2023/04/22 06:03:53;;;;;;;5.73;4.70;;;;;;;15.63;61.50;98338.19;5080042;28;40859;-80
2023/04/22 06:06:21;;;;;;;5.00;4.40;;;;;;;15.72;60.84;98330.19;5096468;28;41118;-80
2023/04/22 06:08:48;;;;;;;4.93;4.43;;;;;;;15.82;60.50;98338.22;5079438;28;40705;-80
2023/04/22 06:11:16;;;;;;;5.70;4.70;;;;;;;15.90;59.66;98338.34;5112063;28;41996;-79
2023/04/22 06:13:43;;;;;;;4.90;4.27;;;;;;;15.99;59.21;98333.97;5095719;28;42060;-80
2023/04/22 06:16:11;;;;;;;5.40;4.43;;;;;;;16.04;58.59;98329.06;5078748;28;39952;-80
2023/04/22 06:18:39;;;;;;;4.93;4.20;;;;;;;15.85;58.69;98287.19;5095944;28;41576;-80
2023/04/22 06:21:12;;;;;;;4.77;4.27;;;;;;;16.31;58.61;98337.16;5095379;28;41642;-79
2023/04/22 06:23:48;;;;;;;4.80;4.30;;;;;;;16.45;58.60;98328.66;5113215;28;42461;-79
2023/04/22 06:26:18;;;;;;;6.00;4.60;;;;;;;16.60;57.96;98330.84;5112663;28;40260;-81
2023/04/22 06:28:46;;;;;;;5.67;4.37;;;;;;;16.63;56.99;98330.59;5095483;28;40502;-81
2023/04/22 06:31:18;;;;;;;4.53;4.13;;;;;;;16.85;55.74;98347.13;5095695;28;42038;-80
2023/04/22 06:33:46;;;;;;;5.50;4.23;;;;;;;17.02;56.00;98339.31;5078479;28;41545;-81
2023/04/22 06:36:16;;;;;;;4.87;4.03;;;;;;;17.20;55.18;98350.88;5112333;28;40906;-80
2023/04/22 06:38:46;;;;;;;5.43;4.40;;;;;;;17.42;56.00;98350.47;5095563;28;40807;-79
2023/04/22 06:41:27;;;;;;;4.70;4.17;;;;;;;17.64;55.00;98354.56;5095091;28;42038;-80
2023/04/22 06:44:00;;;;;;;7.07;4.60;;;;;;;17.79;54.00;98362.91;5095467;28;41301;-79
2023/04/22 06:47:02;;;;;;;6.30;3.87;;;;;;;18.02;53.37;98356.09;5070771;28;41658;-79
2023/04/22 06:49:47;;;;;;;4.83;4.33;;;;;;;18.22;52.38;98360.25;5106691;28;41685;-79
2023/04/22 06:52:28;;;;;;;4.83;4.30;;;;;;;18.40;51.45;98362.91;5109003;28;42908;-80
2023/04/22 06:54:58;;;;;;;5.93;4.17;;;;;;;18.60;50.91;98371.63;5094784;28;41126;-77
2023/04/22 06:57:25;;;;;;;5.57;4.33;;;;;;;18.78;50.20;98376.94;5112041;28;40754;-76
2023/04/22 06:59:53;;;;;;;4.47;3.80;;;;;;;18.96;49.50;98383.03;5094401;28;40997;-78
2023/04/22 07:02:21;;;;;;;5.13;3.90;;;;;;;19.20;50.39;98382.31;5094542;28;42834;-78
2023/04/22 07:04:50;;;;;;;4.30;3.80;;;;;;;19.51;49.20;98379.94;5111654;28;43259;-77
2023/04/22 07:07:18;;;;;;;5.77;4.07;;;;;;;19.73;48.41;98385.53;5111837;28;41918;-79
2023/04/22 07:09:47;;;;;;;4.20;3.90;;;;;;;20.05;47.68;98384.72;5028818;28;1377187;-77
2023/04/22 07:12:15;;;;;;;4.67;4.03;;;;;;;20.42;47.19;98381.56;5092975;28;42853;-78
2023/04/22 07:14:44;;;;;;;4.80;3.83;;;;;;;20.77;46.37;98384.88;5112324;28;43142;-78
2023/04/22 07:17:12;;;;;;;4.80;3.90;;;;;;;21.02;45.80;98386.47;5087990;28;39850;-77
2023/04/22 07:19:40;;;;;;;5.67;3.73;;;;;;;21.33;46.03;98386.56;5078592;28;42465;-78
2023/04/22 07:22:07;;;;;;;4.23;3.83;;;;;;;21.53;45.05;98403.13;5112707;28;41934;-76
2023/04/22 07:24:36;;;;;;;5.03;3.53;;;;;;;21.55;44.18;98405.66;5112525;28;41204;-77
2023/04/22 07:27:05;;;;;;;4.43;4.03;;;;;;;21.46;44.11;98399.47;5095524;28;39888;-77
2023/04/22 07:29:32;;;;;;;5.27;3.93;;;;;;;21.56;45.01;98397.41;5095731;28;41782;-77
2023/04/22 07:32:00;;;;;;;4.70;3.77;;;;;;;21.52;43.53;98401.44;5111261;27;42865;-78
2023/04/22 07:34:27;;;;;;;4.40;4.00;;;;;;;21.60;43.88;98406.81;5094976;28;41315;-77
2023/04/22 07:36:55;;;;;;;4.77;4.03;;;;;;;21.62;43.50;98401.25;5113473;28;41579;-78
2023/04/22 07:39:23;;;;;;;6.13;3.87;;;;;;;21.63;43.24;98403.78;5095025;28;42127;-78
2023/04/22 07:41:52;;;;;;;4.73;3.77;;;;;;;21.68;43.69;98387.91;5113386;28;42518;-77
2023/04/22 07:44:21;;;;;;;4.50;4.10;;;;;;;21.71;43.30;98390.25;5094706;28;41483;-77
2023/04/22 07:46:49;;;;;;;7.93;3.73;;;;;;;21.84;43.57;98411.22;5112053;28;41945;-79
2023/04/22 07:49:17;;;;;;;4.43;3.67;;;;;;;21.90;43.64;98405.09;5094821;28;40678;-78
2023/04/22 07:51:44;;;;;;;4.67;4.07;;;;;;;21.97;43.87;98405.25;5111776;28;41843;-79
2023/04/22 07:54:12;;;;;;;4.87;4.20;;;;;;;22.10;43.48;98405.53;5094534;28;40856;-79
2023/04/22 07:56:40;;;;;;;5.43;3.63;;;;;;;22.25;43.82;98400.19;5113441;28;42007;-78
2023/04/22 07:59:07;;;;;;;6.23;4.23;;;;;;;22.33;42.80;98398.25;5094840;28;40635;-78
2023/04/22 08:01:36;;;;;;;5.73;4.17;;;;;;;22.53;42.78;98396.72;5111835;28;43560;-78
2023/04/22 08:04:04;;;;;;;4.93;3.63;;;;;;;22.80;42.51;98402.56;5111671;28;42530;-78
2023/04/22 08:06:31;;;;;;;4.40;3.33;;;;;;;22.80;42.36;98352.09;5112034;28;42254;-78
2023/04/22 08:08:59;;;;;;;4.43;3.90;;;;;;;23.28;41.31;98402.03;5111901;28;42696;-79
2023/04/22 08:11:27;;;;;;;4.10;3.70;;;;;;;23.45;41.50;98391.00;5094475;28;41865;-77
2023/04/22 08:13:54;;;;;;;4.83;3.90;;;;;;;23.74;40.57;98400.97;5112867;28;42277;-80
2023/04/22 08:16:22;;;;;;;5.73;3.93;;;;;;;23.96;40.55;98406.22;5094222;28;40634;-80
2023/04/22 08:18:52;;;;;;;5.47;3.60;;;;;;;24.33;39.61;98407.03;5094656;28;41575;-78
2023/04/22 08:21:19;;;;;;;5.33;4.27;;;;;;;24.60;39.00;98403.50;5094172;28;41751;-80
2023/04/22 08:23:47;;;;;;;6.17;4.30;;;;;;;24.97;38.47;98398.81;5077515;28;42162;-78
2023/04/22 08:26:15;;;;;;;4.97;3.77;;;;;;;25.44;38.89;98389.91;5094320;28;41446;-78
2023/04/22 08:28:43;;;;;;;5.37;3.90;;;;;;;25.81;36.67;98418.44;5077191;28;41728;-77
2023/04/22 08:31:11;;;;;;;4.73;4.07;;;;;;;25.71;37.53;98363.75;5093962;28;41726;-79
2023/04/22 08:33:40;;;;;;;4.10;3.70;;;;;;;26.25;36.74;98414.38;5112432;28;42985;-80
2023/04/22 08:36:10;;;;;;;4.67;3.87;;;;;;;26.51;36.35;98409.00;5094057;28;41398;-77
2023/04/22 08:38:37;;;;;;;4.50;3.90;;;;;;;26.85;36.24;98388.91;5094242;28;40427;-80
2023/04/22 08:41:06;;;;;;;5.60;4.37;;;;;;;27.43;34.53;98411.63;5094198;28;43695;-79
2023/04/22 08:43:33;;;;;;;7.83;4.37;;;;;;;27.93;33.54;98413.75;5093965;28;43222;-78
2023/04/22 08:46:01;;;;;;;6.17;4.50;;;;;;;28.34;32.86;98419.59;5093965;28;40045;-79
2023/04/22 08:48:29;;;;;;;7.57;4.63;;;;;;;28.74;32.70;98417.41;5112280;28;42512;-79
2023/04/22 08:50:58;;;;;;;5.20;4.03;;;;;;;29.39;31.85;98423.31;5076908;28;43176;-80
2023/04/22 08:53:27;;;;;;;6.20;4.77;;;;;;;30.02;30.23;98436.66;5094187;28;43218;-81
2023/04/22 08:55:56;;;;;;;6.30;4.17;;;;;;;30.16;29.72;98431.84;5076911;28;40931;-78
2023/04/22 08:58:24;;;;;;;5.77;4.13;;;;;;;30.14;29.98;98432.06;5093901;28;40954;-79
2023/04/22 09:00:53;;;;;;;5.60;4.63;;;;;;;29.72;30.68;98375.69;5112058;28;42843;-79
2023/04/22 09:03:22;;;;;;;6.17;3.77;;;;;;;29.89;30.46;98431.34;5111849;28;43187;-77
2023/04/22 09:05:51;;;;;;;3.60;3.30;;;;;;;29.99;30.68;98427.03;5093867;28;39783;-78
2023/04/22 09:08:19;;;;;;;4.70;4.00;;;;;;;30.15;30.09;98431.00;5111190;28;41796;-79
2023/04/22 09:10:48;;;;;;;5.20;4.03;;;;;;;30.44;29.91;98429.31;5110494;28;43048;-79
2023/04/22 09:13:17;;;;;;;5.67;4.07;;;;;;;30.61;29.16;98424.03;5111961;28;42360;-81
2023/04/22 09:15:45;;;;;;;4.30;3.90;;;;;;;30.48;29.82;98413.28;5110398;28;40223;-80
2023/04/22 09:18:16;;;;;;;5.87;3.80;;;;;;;30.47;29.61;98401.50;5093842;28;40819;-78
2023/04/22 09:20:44;;;;;;;6.77;4.50;;;;;;;30.52;29.68;98409.03;5112000;28;43863;-79
2023/04/22 09:23:13;;;;;;;5.07;4.10;;;;;;;30.33;29.55;98411.81;5110803;28;42601;-79
2023/04/22 09:26:17;;;;;;;4.50;4.10;;;;;;;30.45;30.24;98408.28;5110499;28;41595;-79
2023/04/22 09:32:13;;;;;;;5.03;4.07;;;;;;;30.24;29.37;98346.81;5076704;28;42558;-80
2023/04/22 09:35:02;;;;;;;6.07;3.93;;;;;;;30.24;29.22;98360.47;5110170;28;41211;-81
2023/04/22 09:37:35;;;;;;;5.50;4.77;;;;;;;30.32;29.06;98369.16;5076422;28;40078;-80
2023/04/22 09:43:43;;;;;;;5.23;4.27;;;;;;;30.64;29.51;98396.25;5092939;28;43137;-80
2023/04/22 09:46:12;;;;;;;5.03;4.23;;;;;;;30.27;29.77;98374.50;5076263;28;41094;-80
2023/04/22 09:48:42;;;;;;;4.90;3.40;;;;;;;30.47;29.31;98406.16;5111190;28;41831;-79
2023/04/22 09:51:15;;;;;;;5.23;3.80;;;;;;;30.31;29.91;98375.69;5090146;28;41841;-82
2023/04/22 09:53:43;;;;;;;5.40;3.97;;;;;;;30.52;29.95;98398.09;5110471;27;43400;-80
2023/04/22 09:56:11;;;;;;;3.80;3.33;;;;;;;30.57;30.26;98373.63;5095699;28;42880;-78
2023/04/22 09:58:39;;;;;;;4.30;3.90;;;;;;;30.91;29.47;98389.22;5096570;28;40056;-82
2023/04/22 10:01:07;;;;;;;4.40;4.00;;;;;;;31.39;29.36;98390.91;5113788;28;41595;-77
2023/04/22 10:03:36;;;;;;;7.00;3.97;;;;;;;31.93;29.04;98395.03;5114613;28;44076;-80
2023/04/22 10:06:04;;;;;;;4.10;3.70;;;;;;;32.78;28.16;98380.41;5113383;28;43294;-77
2023/04/22 10:08:33;;;;;;;4.30;3.90;;;;;;;33.25;27.22;98391.03;5114374;28;41849;-78
2023/04/22 10:11:00;;;;;;;5.70;3.83;;;;;;;32.70;26.85;98410.97;5096512;28;40631;-79
2023/04/22 10:13:29;;;;;;;3.80;3.50;;;;;;;32.52;27.59;98381.06;5079259;28;43187;-78
2023/04/22 10:15:57;;;;;;;5.30;3.47;;;;;;;32.91;27.13;98391.03;5114364;28;43015;-78
2023/04/22 10:18:28;;;;;;;3.53;3.10;;;;;;;32.92;26.27;98391.88;5095996;28;41250;-77
2023/04/22 10:20:59;;;;;;;3.20;3.00;;;;;;;32.69;26.03;98393.69;5112994;28;41517;-78
2023/04/22 10:23:32;;;;;;;4.03;3.00;;;;;;;32.43;26.87;98389.69;5095948;28;42576;-79
2023/04/22 10:26:00;;;;;;;3.63;3.33;;;;;;;32.31;27.12;98383.44;5111474;28;42517;-79
2023/04/22 10:28:29;;;;;;;3.33;3.03;;;;;;;32.34;26.87;98376.66;5112907;28;41710;-80
2023/04/22 10:30:57;;;;;;;3.07;2.80;;;;;;;32.57;26.97;98383.88;5096243;28;41795;-79
2023/04/22 10:33:38;;;;;;;3.00;2.67;;;;;;;33.64;25.55;98395.38;5096182;28;43161;-80
2023/04/22 10:36:09;;;;;;;3.57;3.13;;;;;;;34.20;25.34;98382.31;5111294;28;42998;-81
2023/04/22 10:38:39;;;;;;;2.90;2.70;;;;;;;34.18;24.37;98407.31;5095876;28;39828;-78
2023/04/22 10:41:07;;;;;;;3.70;3.40;;;;;;;33.88;25.34;98390.47;5113384;28;42492;-77
2023/04/22 10:43:42;;;;;;;4.87;3.63;;;;;;;33.53;25.18;98383.44;5113122;28;42666;-79
2023/04/22 10:46:44;;;;;;;4.03;3.57;;;;;;;33.14;25.66;98374.38;5110071;28;42148;-78
2023/04/22 10:49:14;;;;;;;3.77;3.30;;;;;;;33.11;25.84;98376.81;5112849;28;40081;-79
2023/04/22 10:51:44;;;;;;;4.63;4.07;;;;;;;33.18;26.31;98367.31;5095992;28;40606;-79
2023/04/22 10:54:55;;;;;;;4.17;2.70;;;;;;;33.01;25.85;98369.25;5114119;28;43172;-79
2023/04/22 10:57:23;;;;;;;3.30;2.97;;;;;;;32.76;26.80;98360.66;5112483;28;42145;-77
2023/04/22 10:59:53;;;;;;;3.40;3.07;;;;;;;32.43;26.31;98353.22;5114322;28;41855;-80
2023/04/22 11:02:22;;;;;;;3.90;2.90;;;;;;;32.12;27.02;98354.59;5109769;28;42836;-79
2023/04/22 11:04:53;;;;;;;4.27;3.43;;;;;;;31.98;28.33;98342.28;5113873;28;43978;-79
2023/04/22 11:07:34;;;;;;;3.97;2.90;;;;;;;31.86;27.29;98344.22;5111932;28;42295;-80
2023/04/22 11:10:08;;;;;;;4.17;3.00;;;;;;;31.89;27.25;98351.97;5112626;28;40218;-79
2023/04/22 11:12:42;;;;;;;4.60;2.90;;;;;;;31.94;26.82;98335.59;5110946;28;42712;-77
2023/04/22 11:15:12;;;;;;;3.17;2.97;;;;;;;32.30;26.15;98357.13;5114839;27;42679;-82
2023/04/22 11:17:43;;;;;;;3.60;2.30;;;;;;;32.65;26.09;98347.81;5099538;27;42770;-78
2023/04/22 11:20:12;;;;;;;3.87;2.70;;;;;;;32.71;25.62;98363.28;5110520;28;41739;-79
2023/04/22 11:22:43;;;;;;;2.80;2.60;;;;;;;32.70;26.06;98356.13;5095073;28;40829;-79
2023/04/22 11:25:11;;;;;;;3.40;2.43;;;;;;;32.82;25.08;98352.25;5123730;27;42312;-78
2023/04/22 11:27:40;;;;;;;4.00;2.70;;;;;;;32.69;24.95;98351.72;5102297;28;41397;-79
2023/04/22 11:30:10;;;;;;;3.70;2.37;;;;;;;32.62;25.46;98348.34;5113783;28;42325;-80
2023/04/22 11:32:39;;;;;;;4.97;2.77;;;;;;;32.27;25.47;98335.69;5095535;28;42265;-77
2023/04/22 11:35:09;;;;;;;2.73;2.53;;;;;;;32.11;26.25;98337.31;5094978;28;42921;-79
2023/04/22 11:37:44;;;;;;;2.97;2.77;;;;;;;31.74;25.89;98331.44;5078163;28;42811;-78
2023/04/22 11:40:14;;;;;;;3.00;2.70;;;;;;;31.49;26.39;98341.84;5078428;28;40080;-79
2023/04/22 11:42:41;;;;;;;2.90;2.70;;;;;;;31.30;26.48;98323.91;5113164;28;42714;-78
2023/04/22 11:45:10;;;;;;;3.33;3.00;;;;;;;31.15;25.87;98299.00;5095351;28;42859;-80
2023/04/22 11:47:39;;;;;;;2.00;1.90;;;;;;;31.39;26.46;98338.91;5078341;28;41416;-79
2023/04/22 11:50:10;;;;;;;3.07;2.00;;;;;;;31.37;25.63;98313.69;5078290;28;39850;-80
2023/04/22 11:52:44;;;;;;;1.90;1.80;;;;;;;31.75;25.40;98332.25;5077975;28;40513;-81
2023/04/22 11:55:12;;;;;;;2.17;1.97;;;;;;;32.14;24.69;98330.50;5094933;28;41808;-78
2023/04/22 11:57:41;;;;;;;1.50;1.40;;;;;;;32.68;24.39;98322.63;5095233;28;41158;-81